createdAt,value
2022-11-21T00:00:33.945Z,-1.98
2022-11-21T00:03:22.312Z,-1.94
2022-11-21T00:06:10.189Z,-1.90
2022-11-21T00:08:57.809Z,-1.88
2022-11-21T00:11:45.503Z,-1.83
2022-11-21T00:14:34.633Z,-1.78
2022-11-21T00:17:22.370Z,-1.75
2022-11-21T00:20:10.722Z,-1.73
2022-11-21T00:22:58.376Z,-1.72
2022-11-21T00:25:46.184Z,-1.72
2022-11-21T00:28:35.389Z,-1.73
2022-11-21T00:31:24.257Z,-1.73
2022-11-21T00:34:12.305Z,-1.73
2022-11-21T00:37:00.171Z,-1.69
2022-11-21T00:39:49.063Z,-1.70
2022-11-21T00:42:37.081Z,-1.71
2022-11-21T00:45:25.017Z,-1.73
2022-11-21T00:48:13.049Z,-1.73
2022-11-21T00:51:01.247Z,-1.69
2022-11-21T00:53:48.901Z,-1.69
2022-11-21T00:56:36.783Z,-1.65
2022-11-21T00:59:24.451Z,-1.61
2022-11-21T01:02:13.867Z,-1.57
2022-11-21T01:05:01.679Z,-1.54
2022-11-21T01:07:49.520Z,-1.52
2022-11-21T01:10:37.437Z,-1.54
2022-11-21T01:13:25.166Z,-1.55
2022-11-21T01:16:26.603Z,-1.58
2022-11-21T01:19:14.070Z,-1.57
2022-11-21T01:22:01.859Z,-1.53
2022-11-21T01:24:49.451Z,-1.51
2022-11-21T01:27:37.455Z,-1.50
2022-11-21T01:30:25.179Z,-1.48
2022-11-21T01:33:12.618Z,-1.49
2022-11-21T01:36:22.009Z,-1.52
2022-11-21T01:39:11.680Z,-1.52
2022-11-21T01:41:59.669Z,-1.49
2022-11-21T01:44:54.526Z,-1.48
2022-11-21T01:47:42.028Z,-1.49
2022-11-21T01:50:29.506Z,-1.49
2022-11-21T01:53:17.520Z,-1.50
2022-11-21T01:56:06.574Z,-1.49
2022-11-21T01:58:58.826Z,-1.49
2022-11-21T02:01:49.822Z,-1.49
2022-11-21T02:04:41.505Z,-1.53
2022-11-21T02:07:35.994Z,-1.56
2022-11-21T02:10:24.132Z,-1.57
2022-11-21T02:13:15.087Z,-1.58
2022-11-21T02:16:03.450Z,-1.57
2022-11-21T02:18:50.882Z,-1.55
2022-11-21T02:22:02.458Z,-1.54
2022-11-21T02:25:16.001Z,-1.54
2022-11-21T02:28:10.025Z,-1.58
2022-11-21T02:30:57.640Z,-1.59
2022-11-21T02:33:45.372Z,-1.59
2022-11-21T02:36:45.575Z,-1.61
2022-11-21T02:39:37.449Z,-1.61
2022-11-21T02:42:33.409Z,-1.60
2022-11-21T02:45:29.904Z,-1.60
2022-11-21T02:48:17.448Z,-1.57
2022-11-21T02:51:05.508Z,-1.55
2022-11-21T02:53:53.461Z,-1.55
2022-11-21T02:56:41.213Z,-1.55
2022-11-21T02:59:28.864Z,-1.52
2022-11-21T03:02:16.807Z,-1.52
2022-11-21T03:05:07.271Z,-1.54
2022-11-21T03:07:55.013Z,-1.56
2022-11-21T03:10:42.584Z,-1.56
2022-11-21T03:13:30.472Z,-1.53
2022-11-21T03:16:18.249Z,-1.54
2022-11-21T03:19:06.094Z,-1.56
2022-11-21T03:21:54.239Z,-1.59
2022-11-21T03:24:42.109Z,-1.61
2022-11-21T03:27:29.847Z,-1.60
2022-11-21T03:30:17.549Z,-1.61
2022-11-21T03:33:05.289Z,-1.60
2022-11-21T03:35:52.973Z,-1.62
2022-11-21T03:38:40.816Z,-1.64
2022-11-21T03:41:31.259Z,-1.64
2022-11-21T03:44:19.304Z,-1.66
2022-11-21T03:47:07.044Z,-1.66
2022-11-21T03:49:54.860Z,-1.66
2022-11-21T03:52:42.917Z,-1.65
2022-11-21T03:55:30.622Z,-1.65
2022-11-21T03:58:18.441Z,-1.67
2022-11-21T04:01:06.521Z,-1.69
2022-11-21T04:03:54.382Z,-1.69
2022-11-21T04:06:42.143Z,-1.68
2022-11-21T04:09:30.016Z,-1.66
2022-11-21T04:12:17.834Z,-1.64
2022-11-21T04:15:12.104Z,-1.65
2022-11-21T04:18:01.160Z,-1.69
2022-11-21T04:20:49.304Z,-1.70
2022-11-21T04:23:40.121Z,-1.70
2022-11-21T04:26:27.450Z,-1.67
2022-11-21T04:29:14.932Z,-1.68
2022-11-21T04:32:02.754Z,-1.66
2022-11-21T04:34:50.429Z,-1.66
2022-11-21T04:37:39.552Z,-1.65
2022-11-21T04:40:27.181Z,-1.69
2022-11-21T04:43:15.054Z,-1.67
2022-11-21T04:46:02.534Z,-1.68
2022-11-21T04:48:50.050Z,-1.71
2022-11-21T04:51:37.805Z,-1.71
2022-11-21T04:54:25.717Z,-1.71
2022-11-21T04:57:14.086Z,-1.72
2022-11-21T05:00:02.039Z,-1.72
2022-11-21T05:02:49.809Z,-1.72
2022-11-21T05:05:37.802Z,-1.70
2022-11-21T05:08:25.446Z,-1.71
2022-11-21T05:11:31.407Z,-1.73
2022-11-21T05:14:19.330Z,-1.76
2022-11-21T05:17:07.203Z,-1.75
2022-11-21T05:19:55.105Z,-1.75
2022-11-21T05:22:42.675Z,-1.76
2022-11-21T05:25:30.390Z,-1.79
2022-11-21T05:28:18.011Z,-1.82
2022-11-21T05:31:05.890Z,-1.83
2022-11-21T05:33:53.296Z,-1.86
2022-11-21T05:36:41.434Z,-1.85
2022-11-21T05:39:29.172Z,-1.86
2022-11-21T05:42:16.495Z,-1.86
2022-11-21T05:45:04.320Z,-1.90
2022-11-21T05:47:52.579Z,-1.92
2022-11-21T05:50:40.220Z,-1.94
2022-11-21T05:53:27.801Z,-1.96
2022-11-21T05:56:18.894Z,-1.94
2022-11-21T05:59:06.428Z,-1.97
2022-11-21T06:02:12.730Z,-2.01
2022-11-21T06:05:00.492Z,-2.07
2022-11-21T06:07:48.082Z,-2.12
2022-11-21T06:10:36.301Z,-2.16
2022-11-21T06:13:24.924Z,-2.16
2022-11-21T06:16:16.392Z,-2.15
2022-11-21T06:19:04.993Z,-2.16
2022-11-21T06:21:52.987Z,-2.13
2022-11-21T06:24:40.430Z,-2.14
2022-11-21T06:27:30.098Z,-2.13
2022-11-21T06:30:22.044Z,-2.11
2022-11-21T06:33:10.149Z,-2.15
2022-11-21T06:35:57.627Z,-2.19
2022-11-21T06:38:46.205Z,-2.20
2022-11-21T06:41:33.690Z,-2.21
2022-11-21T06:44:21.573Z,-2.23
2022-11-21T06:47:09.396Z,-2.22
2022-11-21T06:49:56.996Z,-2.20
2022-11-21T06:52:44.424Z,-2.18
2022-11-21T06:55:32.239Z,-2.17
2022-11-21T06:58:19.860Z,-2.16
2022-11-21T07:01:10.724Z,-2.15
2022-11-21T07:03:58.527Z,-2.15
2022-11-21T07:06:46.194Z,-2.13
2022-11-21T07:09:35.729Z,-2.11
2022-11-21T07:12:41.804Z,-2.13
2022-11-21T07:15:33.972Z,-2.14
2022-11-21T07:18:22.881Z,-2.13
2022-11-21T07:21:10.661Z,-2.12
2022-11-21T07:23:58.609Z,-2.09
2022-11-21T07:26:46.385Z,-2.07
2022-11-21T07:29:33.853Z,-2.03
2022-11-21T07:32:21.593Z,-1.99
2022-11-21T07:35:11.659Z,-1.94
2022-11-21T07:37:59.529Z,-1.91
2022-11-21T07:40:47.258Z,-1.91
2022-11-21T07:43:34.910Z,-1.92
2022-11-21T07:46:22.483Z,-1.88
2022-11-21T07:49:10.343Z,-1.90
2022-11-21T07:51:58.576Z,-1.89
2022-11-21T07:54:46.222Z,-1.86
2022-11-21T07:57:34.444Z,-1.82
2022-11-21T08:00:22.314Z,-1.77
2022-11-21T08:03:14.455Z,-1.72
2022-11-21T08:06:04.657Z,-1.64
2022-11-21T08:08:55.203Z,-1.58
2022-11-21T08:11:42.672Z,-1.54
2022-11-21T08:14:29.927Z,-1.48
2022-11-21T08:17:18.590Z,-1.43
2022-11-21T08:20:08.058Z,-1.35
2022-11-21T08:22:55.766Z,-1.26
2022-11-21T08:25:43.745Z,-1.15
2022-11-21T08:28:31.485Z,-1.02
2022-11-21T08:31:18.962Z,-0.92
2022-11-21T08:34:10.300Z,-0.82
2022-11-21T08:37:02.280Z,-0.80
2022-11-21T08:39:52.950Z,-0.82
2022-11-21T08:42:40.471Z,-0.89
2022-11-21T08:45:28.543Z,-0.92
2022-11-21T08:48:16.157Z,-0.91
2022-11-21T08:51:03.980Z,-0.94
2022-11-21T08:53:51.989Z,-0.91
2022-11-21T08:56:39.857Z,-0.74
2022-11-21T08:59:27.643Z,-0.47
2022-11-21T09:02:15.170Z,-0.14
2022-11-21T09:05:02.444Z,0.25
2022-11-21T09:07:57.598Z,0.80
2022-11-21T09:10:45.251Z,1.71
2022-11-21T09:13:34.275Z,2.58
2022-11-21T09:16:40.757Z,2.96
2022-11-21T09:19:28.921Z,3.64
2022-11-21T09:22:17.088Z,4.89
2022-11-21T09:25:05.358Z,5.65
2022-11-21T09:27:53.147Z,6.25
2022-11-21T09:30:42.385Z,7.06
2022-11-21T09:33:30.126Z,7.96
2022-11-21T09:36:17.799Z,8.85
2022-11-21T09:39:05.291Z,9.98
2022-11-21T09:41:59.637Z,11.03
2022-11-21T09:45:13.459Z,12.09
2022-11-21T09:48:09.041Z,11.95
2022-11-21T09:51:04.399Z,12.78
2022-11-21T09:54:03.792Z,12.97
2022-11-21T09:56:53.642Z,12.86
2022-11-21T09:59:41.605Z,13.40
2022-11-21T10:02:29.186Z,13.96
2022-11-21T10:05:16.687Z,14.70
2022-11-21T10:08:35.894Z,15.38
2022-11-21T10:12:39.757Z,15.42
2022-11-21T10:15:49.620Z,14.44
2022-11-21T10:19:16.139Z,13.40
2022-11-21T10:22:53.912Z,14.13
2022-11-21T10:25:50.868Z,13.86
2022-11-21T10:28:46.309Z,12.85
2022-11-21T10:31:40.195Z,11.51
2022-11-21T10:34:35.829Z,10.45
2022-11-21T10:37:26.349Z,9.52
2022-11-21T10:40:24.911Z,10.14
2022-11-21T10:44:01.998Z,11.11
2022-11-21T10:46:58.299Z,12.09
2022-11-21T10:49:49.174Z,12.18
2022-11-21T10:52:56.974Z,12.13
2022-11-21T10:56:16.198Z,11.62
2022-11-21T10:59:29.858Z,10.92
2022-11-21T11:02:18.010Z,10.81
2022-11-21T11:05:24.297Z,10.56
2022-11-21T11:08:14.972Z,10.86
2022-11-21T11:11:13.642Z,10.84
2022-11-21T11:14:12.009Z,10.24
2022-11-21T11:16:59.963Z,9.80
2022-11-21T11:20:03.811Z,9.57
2022-11-21T11:22:51.278Z,8.35
2022-11-21T11:25:39.056Z,7.04
2022-11-21T11:28:36.061Z,5.60
2022-11-21T11:31:23.760Z,4.23
2022-11-21T11:34:15.131Z,3.31
2022-11-21T11:37:16.422Z,2.72
2022-11-21T11:40:36.227Z,2.36
2022-11-21T11:44:24.731Z,1.98
2022-11-21T11:47:41.994Z,1.52
2022-11-21T11:50:43.293Z,1.40
2022-11-21T11:53:43.882Z,1.14
2022-11-21T11:56:38.105Z,0.88
2022-11-21T11:59:35.221Z,0.79
2022-11-21T12:02:45.781Z,0.74
2022-11-21T12:05:37.488Z,0.57
2022-11-21T12:08:42.356Z,0.53
2022-11-21T12:12:15.809Z,0.68
2022-11-21T12:15:42.344Z,0.54
2022-11-21T12:18:47.700Z,0.67
2022-11-21T12:21:35.008Z,0.93
2022-11-21T12:24:22.468Z,0.92
2022-11-21T12:27:31.228Z,0.82
2022-11-21T12:30:48.152Z,0.58
2022-11-21T12:33:47.519Z,0.49
2022-11-21T12:36:54.016Z,0.43
2022-11-21T12:40:00.683Z,0.32
2022-11-21T12:42:50.920Z,0.21
2022-11-21T12:46:20.649Z,0.21
2022-11-21T12:49:54.767Z,-0.02
2022-11-21T12:53:17.819Z,-0.23
2022-11-21T12:56:20.910Z,-0.33
2022-11-21T12:59:14.117Z,-0.45
2022-11-21T13:02:24.873Z,-0.50
2022-11-21T13:05:25.209Z,-0.58
2022-11-21T13:08:24.639Z,-0.70
2022-11-21T13:12:01.668Z,-0.74
2022-11-21T13:15:23.501Z,-0.89
2022-11-21T13:18:34.224Z,-0.98
2022-11-21T13:21:44.217Z,-1.15
2022-11-21T13:24:47.979Z,-1.32
2022-11-21T13:27:43.407Z,-1.46
2022-11-21T13:30:31.290Z,-1.60
2022-11-21T13:33:39.662Z,-1.75
2022-11-21T13:36:30.215Z,-1.87
2022-11-21T13:39:17.655Z,-1.97
2022-11-21T13:42:26.841Z,-2.05
2022-11-21T13:45:59.969Z,-2.14
2022-11-21T13:49:19.784Z,-2.17
2022-11-21T13:52:27.558Z,-2.19
2022-11-21T13:55:27.947Z,-2.23
2022-11-21T13:58:47.044Z,-2.26
2022-11-21T14:01:40.723Z,-2.31
2022-11-21T14:05:05.971Z,-2.38
2022-11-21T14:07:53.824Z,-2.48
2022-11-21T14:10:42.969Z,-2.55
2022-11-21T14:13:38.518Z,-2.63
2022-11-21T14:16:48.380Z,-2.71
2022-11-21T14:19:36.301Z,-2.82
2022-11-21T14:22:51.984Z,-2.93
2022-11-21T14:25:39.525Z,-3.02
2022-11-21T14:28:34.045Z,-3.09
2022-11-21T14:31:21.529Z,-3.14
2022-11-21T14:34:09.617Z,-3.20
2022-11-21T14:37:05.141Z,-3.28
2022-11-21T14:39:57.101Z,-3.33
2022-11-21T14:42:45.032Z,-3.36
2022-11-21T14:45:32.987Z,-3.40
2022-11-21T14:48:27.654Z,-3.45
2022-11-21T14:51:18.059Z,-3.48
2022-11-21T14:54:05.751Z,-3.50
2022-11-21T14:57:03.380Z,-3.49
2022-11-21T14:59:52.399Z,-3.48
2022-11-21T15:02:40.055Z,-3.47
2022-11-21T15:06:00.927Z,-3.46
2022-11-21T15:11:55.897Z,-3.44
2022-11-21T15:14:54.072Z,-3.44
2022-11-21T15:18:10.121Z,-3.42
2022-11-21T15:20:59.163Z,-3.37
2022-11-21T15:23:47.196Z,-3.33
2022-11-21T15:26:35.801Z,-3.28
2022-11-21T15:29:23.517Z,-3.25
2022-11-21T15:35:38.394Z,-3.20
2022-11-21T15:38:40.980Z,-3.17
2022-11-21T15:41:31.721Z,-3.13
2022-11-21T15:44:22.621Z,-3.09
2022-11-21T15:47:10.760Z,-3.03
2022-11-21T15:49:58.625Z,-3.00
2022-11-21T15:52:51.990Z,-2.98
2022-11-21T15:55:39.638Z,-2.96
2022-11-21T15:57:12.411Z,-3.23
2022-11-21T15:58:27.463Z,-2.94
2022-11-21T16:01:19.260Z,-2.95
2022-11-21T16:04:12.249Z,-2.93
2022-11-21T16:07:00.347Z,-2.95
2022-11-21T16:09:48.143Z,-2.96
2022-11-21T16:12:35.823Z,-2.96
2022-11-21T16:15:23.909Z,-2.96
2022-11-21T16:18:11.363Z,-2.96
2022-11-21T16:21:09.920Z,-2.93
2022-11-21T16:23:58.464Z,-2.91
2022-11-21T16:26:47.054Z,-2.89
2022-11-21T16:29:35.055Z,-2.88
2022-11-21T16:32:26.030Z,-2.87
2022-11-21T16:35:13.968Z,-2.87
2022-11-21T16:38:01.596Z,-2.88
2022-11-21T16:40:59.095Z,-2.85
2022-11-21T16:43:50.075Z,-2.83
2022-11-21T16:46:42.581Z,-2.82
2022-11-21T16:49:31.099Z,-2.81
2022-11-21T16:52:19.233Z,-2.81
2022-11-21T16:55:06.935Z,-2.86
2022-11-21T16:57:58.019Z,-2.88
2022-11-21T17:00:45.499Z,-2.88
2022-11-21T17:03:33.215Z,-2.87
2022-11-21T17:06:27.248Z,-2.85
2022-11-21T17:09:18.172Z,-2.87
2022-11-21T17:12:35.113Z,-2.91
2022-11-21T17:15:26.556Z,-2.90
2022-11-21T17:18:13.964Z,-2.92
2022-11-21T17:21:10.419Z,-2.95
2022-11-21T17:23:58.697Z,-2.98
2022-11-21T17:26:46.599Z,-3.01
2022-11-21T17:29:34.143Z,-3.00
2022-11-21T17:32:21.656Z,-2.99
2022-11-21T17:35:10.253Z,-2.96
2022-11-21T17:37:57.694Z,-2.95
2022-11-21T17:40:45.335Z,-2.94
2022-11-21T17:43:37.151Z,-2.92
2022-11-21T17:46:26.747Z,-2.93
2022-11-21T17:49:14.725Z,-2.93
2022-11-21T17:52:05.562Z,-2.93
2022-11-21T17:54:53.264Z,-2.89
2022-11-21T17:57:40.611Z,-2.88
2022-11-21T18:00:28.104Z,-2.86
2022-11-21T18:03:15.689Z,-2.84
2022-11-21T18:06:13.805Z,-2.83
2022-11-21T18:09:02.033Z,-2.85
2022-11-21T18:11:49.745Z,-2.87
2022-11-21T18:14:37.395Z,-2.90
2022-11-21T18:17:25.304Z,-2.94
2022-11-21T18:20:12.814Z,-3.00
2022-11-21T18:23:03.622Z,-3.05
2022-11-21T18:25:51.325Z,-3.10
2022-11-21T18:28:39.411Z,-3.14
2022-11-21T18:31:29.617Z,-3.17
2022-11-21T18:34:17.271Z,-3.20
2022-11-21T18:37:05.002Z,-3.22
2022-11-21T18:39:53.327Z,-3.28
2022-11-21T18:42:41.750Z,-3.32
2022-11-21T18:45:33.645Z,-3.35
2022-11-21T18:48:23.154Z,-3.37
2022-11-21T18:51:25.727Z,-3.40
2022-11-21T18:54:13.264Z,-3.41
2022-11-21T18:57:01.139Z,-3.41
2022-11-21T18:59:48.901Z,-3.42
2022-11-21T19:02:36.528Z,-3.44
2022-11-21T19:05:24.173Z,-3.48
2022-11-21T19:08:11.641Z,-3.50
2022-11-21T19:11:06.683Z,-3.50
2022-11-21T19:13:55.679Z,-3.49
2022-11-21T19:16:43.086Z,-3.47
2022-11-21T19:19:35.357Z,-3.44
2022-11-21T19:22:23.391Z,-3.41
2022-11-21T19:25:12.237Z,-3.38
2022-11-21T19:28:00.873Z,-3.36
2022-11-21T19:30:48.427Z,-3.32
2022-11-21T19:33:35.882Z,-3.27
2022-11-21T19:36:24.465Z,-3.22
2022-11-21T19:39:12.539Z,-3.17
2022-11-21T19:42:00.256Z,-3.13
2022-11-21T19:44:48.884Z,-3.11
2022-11-21T19:47:36.771Z,-3.08
2022-11-21T19:50:24.476Z,-3.07
2022-11-21T19:53:12.725Z,-3.09
2022-11-21T19:56:08.774Z,-3.07
2022-11-21T19:58:57.194Z,-3.04
2022-11-21T20:01:51.021Z,-3.01
2022-11-21T20:04:42.508Z,-2.95
2022-11-21T20:07:32.781Z,-2.88
2022-11-21T20:10:20.231Z,-2.82
2022-11-21T20:13:07.914Z,-2.77
2022-11-21T20:15:55.227Z,-2.75
2022-11-21T20:18:42.798Z,-2.71
2022-11-21T20:21:30.554Z,-2.67
2022-11-21T20:24:18.348Z,-2.64
2022-11-21T20:27:06.571Z,-2.63
2022-11-21T20:29:54.065Z,-2.62
2022-11-21T20:32:41.593Z,-2.59
2022-11-21T20:35:29.288Z,-2.57
2022-11-21T20:38:21.487Z,-2.54
2022-11-21T20:41:11.593Z,-2.51
2022-11-21T20:47:13.494Z,-2.47
2022-11-21T20:50:00.947Z,-2.46
2022-11-21T20:56:07.923Z,-2.45
2022-11-21T20:58:55.386Z,-2.45
2022-11-21T21:01:42.964Z,-2.46
2022-11-21T21:04:30.517Z,-2.44
2022-11-21T21:07:18.347Z,-2.37
2022-11-21T21:10:06.868Z,-2.35
2022-11-21T21:12:58.175Z,-2.33
2022-11-21T21:15:46.397Z,-2.30
2022-11-21T21:18:36.222Z,-2.28
2022-11-21T21:21:27.430Z,-2.28
2022-11-21T21:24:15.961Z,-2.27
2022-11-21T21:27:03.785Z,-2.28
2022-11-21T21:29:51.515Z,-2.32
2022-11-21T21:32:39.225Z,-2.35
2022-11-21T21:35:26.794Z,-2.39
2022-11-21T21:38:14.198Z,-2.40
2022-11-21T21:41:04.215Z,-2.42
2022-11-21T21:43:53.855Z,-2.45
2022-11-21T21:46:41.716Z,-2.46
2022-11-21T21:49:29.470Z,-2.48
2022-11-21T21:52:17.755Z,-2.53
2022-11-21T21:55:05.985Z,-2.57
2022-11-21T21:57:53.615Z,-2.63
2022-11-21T22:00:41.941Z,-2.70
2022-11-21T22:03:29.721Z,-2.76
2022-11-21T22:06:18.807Z,-2.86
2022-11-21T22:09:08.583Z,-2.99
2022-11-21T22:11:56.135Z,-3.08
2022-11-21T22:14:43.654Z,-3.14
2022-11-21T22:17:31.069Z,-3.16
2022-11-21T22:20:18.885Z,-3.17
2022-11-21T22:23:06.607Z,-3.20
2022-11-21T22:25:58.280Z,-3.25
2022-11-21T22:28:46.574Z,-3.30
2022-11-21T22:31:35.015Z,-3.33
2022-11-21T22:34:23.082Z,-3.40
2022-11-21T22:37:10.834Z,-3.49
2022-11-21T22:39:58.431Z,-3.57
2022-11-21T22:42:45.854Z,-3.65
2022-11-21T22:45:35.258Z,-3.74
2022-11-21T22:48:22.496Z,-3.80
2022-11-21T22:51:14.256Z,-3.84
2022-11-21T22:54:01.964Z,-3.87
2022-11-21T22:56:49.149Z,-3.93
2022-11-21T22:59:36.712Z,-3.99
2022-11-21T23:02:24.271Z,-4.04
2022-11-21T23:05:12.167Z,-4.08
2022-11-21T23:07:59.392Z,-4.12
2022-11-21T23:10:47.199Z,-4.12
2022-11-21T23:13:36.731Z,-4.08
2022-11-21T23:16:25.800Z,-4.05
2022-11-21T23:19:13.415Z,-4.02
2022-11-21T23:22:01.109Z,-3.98
2022-11-21T23:24:48.655Z,-3.94
2022-11-21T23:27:35.979Z,-3.88
2022-11-21T23:30:23.436Z,-3.83
2022-11-21T23:33:11.825Z,-3.80
2022-11-21T23:35:59.736Z,-3.80
2022-11-21T23:38:47.279Z,-3.80
2022-11-21T23:41:35.200Z,-3.80
2022-11-21T23:44:22.930Z,-3.80
2022-11-21T23:47:10.340Z,-3.82
2022-11-21T23:49:57.833Z,-3.83
2022-11-21T23:52:45.291Z,-3.81
2022-11-21T23:55:32.961Z,-3.77
2022-11-21T23:58:20.422Z,-3.75
